Time;durP1;ratioP1;P1;durP2;ratioP2;P2;SDS_P1;SDS_P2;PMS_P1;PMS_P2;Temp;Humidity;BMP_temperature;BMP_pressure;BME280_temperature;BME280_humidity;BME280_pressure;Samples;Min_cycle;Max_cycle;Signal;HPM_P1;HPM_P2
2021/11/26 00:02:19;;;;;;;1999.90;999.90;;;;;;;-0.16;58.45;100101.78;4896464;28;97672;-77
2021/11/26 00:04:48;;;;;;;1999.90;999.90;;;;;;;-0.17;58.27;100095.66;4881069;28;97426;-76
2021/11/26 00:07:17;;;;;;;1999.90;999.90;;;;;;;-0.21;58.23;100098.91;4879684;28;99183;-76
2021/11/26 00:09:46;;;;;;;1999.90;999.90;;;;;;;-0.25;58.57;100096.97;4895592;28;100896;-76
2021/11/26 00:12:14;;;;;;;1999.90;999.90;;;;;;;-0.29;58.55;100100.22;4898260;28;97542;-76
2021/11/26 00:14:48;;;;;;;1999.90;999.90;;;;;;;-0.31;58.53;100095.72;4893933;28;97054;-79
2021/11/26 00:17:19;;;;;;;1999.90;999.90;;;;;;;-0.33;58.83;100094.75;4897223;28;97861;-77
2021/11/26 00:19:47;;;;;;;1999.90;999.90;;;;;;;-0.34;58.61;100085.13;4895986;28;99376;-76
2021/11/26 00:22:16;;;;;;;1999.90;999.90;;;;;;;-0.34;58.79;100080.81;4895857;28;97658;-78
2021/11/26 00:24:44;;;;;;;1999.90;999.90;;;;;;;-0.32;58.70;100070.44;4895705;28;97362;-77
2021/11/26 00:27:12;;;;;;;1999.90;999.90;;;;;;;-0.33;58.48;100061.69;4896949;28;98828;-78
2021/11/26 00:29:41;;;;;;;1999.90;999.90;;;;;;;-0.33;58.57;100064.28;4879797;28;101151;-77
2021/11/26 00:32:09;;;;;;;1999.90;999.90;;;;;;;-0.34;58.35;100057.28;4895463;28;97676;-78
2021/11/26 00:34:39;;;;;;;1999.90;999.90;;;;;;;-0.31;58.23;100057.44;4898635;28;97258;-77
2021/11/26 00:37:07;;;;;;;1999.90;999.90;;;;;;;-0.34;58.88;100056.38;4863424;28;99346;-78
2021/11/26 00:39:36;;;;;;;1999.90;999.90;;;;;;;-0.34;58.52;100056.38;4879250;28;100687;-79
2021/11/26 00:42:04;;;;;;;1999.90;999.90;;;;;;;-0.36;58.56;100058.91;4864362;28;97335;-77
2021/11/26 00:44:32;;;;;;;1999.90;999.90;;;;;;;-0.38;58.60;100057.03;4896854;28;98288;-79
2021/11/26 00:47:00;;;;;;;1999.90;999.90;;;;;;;-0.39;58.54;100056.13;4894848;28;97296;-79
2021/11/26 00:49:29;;;;;;;1999.90;999.90;;;;;;;-0.41;58.89;100052.53;4879490;28;100444;-78
2021/11/26 00:51:58;;;;;;;1999.90;999.90;;;;;;;-0.43;58.73;100048.06;4895262;28;97592;-77
2021/11/26 00:54:26;;;;;;;1999.90;999.90;;;;;;;-0.42;58.79;100061.19;4885588;28;98182;-76
2021/11/26 00:56:54;;;;;;;1999.90;999.90;;;;;;;-0.45;58.70;100049.69;4885773;28;99283;-77
2021/11/26 00:59:23;;;;;;;1999.90;999.90;;;;;;;-0.47;58.41;100052.22;4897414;28;99125;-76
2021/11/26 01:01:51;;;;;;;1999.90;999.90;;;;;;;-0.51;58.51;100041.50;4897625;28;97094;-79
2021/11/26 01:04:19;;;;;;;1999.90;999.90;;;;;;;-0.54;58.72;100033.53;4898623;28;97652;-76
2021/11/26 01:06:47;;;;;;;1999.90;999.90;;;;;;;-0.56;58.80;100038.66;4895739;28;99094;-76
2021/11/26 01:09:17;;;;;;;1999.90;999.90;;;;;;;-0.58;58.30;100037.69;4882062;28;101997;-77
2021/11/26 01:11:45;;;;;;;1999.90;999.90;;;;;;;-0.59;58.65;100028.03;4897188;28;99200;-78
2021/11/26 01:14:13;;;;;;;1999.90;999.90;;;;;;;-0.57;58.79;100023.78;4899036;28;97329;-76
2021/11/26 01:16:41;;;;;;;1999.90;999.90;;;;;;;-0.58;59.03;100027.25;4882482;28;99007;-79
2021/11/26 01:19:10;;;;;;;1999.90;999.90;;;;;;;-0.61;58.92;100027.06;4896674;28;100358;-77
2021/11/26 01:21:38;;;;;;;1999.90;999.90;;;;;;;-0.64;58.49;100024.28;4886888;28;97284;-76
2021/11/26 01:24:06;;;;;;;1999.90;999.90;;;;;;;-0.33;58.02;100025.09;4899118;28;97661;-77
2021/11/26 01:26:36;;;;;;;1999.90;999.90;;;;;;;-0.15;57.63;100019.91;4897182;28;99482;-77
2021/11/26 01:29:04;;;;;;;1999.90;999.90;;;;;;;-0.03;57.46;100015.31;4899168;28;98432;-77
2021/11/26 01:31:35;;;;;;;1999.90;999.90;;;;;;;-0.28;58.26;100013.16;4883322;28;98303;-76
2021/11/26 01:34:04;;;;;;;1999.90;999.90;;;;;;;-0.37;58.33;100017.91;4883850;28;97326;-80
2021/11/26 01:36:33;;;;;;;1999.90;999.90;;;;;;;-0.44;58.44;100010.56;4899065;28;98718;-79
2021/11/26 01:39:02;;;;;;;1999.90;999.90;;;;;;;-0.51;58.26;100005.84;4899699;28;99501;-77
2021/11/26 01:41:30;;;;;;;1999.90;999.90;;;;;;;-0.55;58.83;100001.25;4900381;28;98421;-79
2021/11/26 01:43:59;;;;;;;1999.90;999.90;;;;;;;-0.55;58.21;100001.25;4883787;28;98194;-78
2021/11/26 01:46:27;;;;;;;1999.90;999.90;;;;;;;-0.59;58.95;99999.28;4899057;28;98156;-78
2021/11/26 01:48:56;;;;;;;1999.90;999.90;;;;;;;-0.61;58.98;99990.47;4884431;28;100244;-77
2021/11/26 01:51:24;;;;;;;1999.90;999.90;;;;;;;-0.61;58.56;99994.81;4900312;28;98228;-76
2021/11/26 01:53:52;;;;;;;1999.90;999.90;;;;;;;-0.65;58.78;99993.78;4885041;28;97005;-77
2021/11/26 01:56:20;;;;;;;1999.90;999.90;;;;;;;-0.68;58.45;99997.94;4890109;28;99396;-77
2021/11/26 01:58:48;;;;;;;1999.90;999.90;;;;;;;-0.72;58.92;99994.25;4916267;28;99607;-77
2021/11/26 02:01:18;;;;;;;1999.90;999.90;;;;;;;-0.73;58.86;99996.78;4915740;28;97879;-77
2021/11/26 02:03:46;;;;;;;1999.90;999.90;;;;;;;-0.80;58.78;99987.72;4912681;28;96831;-77
2021/11/26 02:06:14;;;;;;;1999.90;999.90;;;;;;;-0.83;58.82;99982.34;4908525;28;97821;-75
2021/11/26 02:08:43;;;;;;;1999.90;999.90;;;;;;;-0.88;58.99;99974.25;4911925;28;97895;-78
2021/11/26 02:11:11;;;;;;;1999.90;999.90;;;;;;;-0.91;59.04;99978.41;4907064;28;97894;-77
2021/11/26 02:13:40;;;;;;;1999.90;999.90;;;;;;;-0.92;58.72;99967.06;4871510;28;98106;-77
2021/11/26 02:16:08;;;;;;;1999.90;999.90;;;;;;;-0.90;58.77;99970.66;4903613;28;97624;-79
2021/11/26 02:18:38;;;;;;;1999.90;999.90;;;;;;;-0.92;58.83;99967.06;4899280;28;98716;-80
2021/11/26 02:21:07;;;;;;;1999.90;999.90;;;;;;;-0.91;59.16;99970.59;4899426;28;97146;-79
2021/11/26 02:23:35;;;;;;;1999.90;999.90;;;;;;;-0.92;58.79;99955.72;4898976;28;97381;-77
2021/11/26 02:26:04;;;;;;;1999.90;999.90;;;;;;;-0.91;58.51;99960.16;4899938;28;98515;-78
2021/11/26 02:28:32;;;;;;;1999.90;999.90;;;;;;;-0.90;59.03;99948.88;4897674;28;97606;-79
2021/11/26 02:31:00;;;;;;;1999.90;999.90;;;;;;;-0.90;58.85;99949.78;4881969;28;97597;-75
2021/11/26 02:33:28;;;;;;;1999.90;999.90;;;;;;;-0.89;58.63;99941.13;4894709;28;98195;-76
2021/11/26 02:35:57;;;;;;;1999.90;999.90;;;;;;;-0.89;58.46;99942.84;4881577;28;99184;-78
2021/11/26 02:38:28;;;;;;;1999.90;999.90;;;;;;;-0.91;58.74;99931.41;4897183;28;99297;-78
2021/11/26 02:40:57;;;;;;;1999.90;999.90;;;;;;;-0.92;58.56;99921.78;4886881;28;96942;-78
2021/11/26 02:43:25;;;;;;;1999.90;999.90;;;;;;;-0.95;59.05;99922.53;4896953;28;97309;-78
2021/11/26 02:45:53;;;;;;;1999.90;999.90;;;;;;;-0.95;58.33;99919.00;4865918;28;99543;-79
2021/11/26 02:48:21;;;;;;;1999.90;999.90;;;;;;;-0.98;59.01;99919.78;4879885;28;99693;-79
2021/11/26 02:50:50;;;;;;;1999.90;999.90;;;;;;;-1.01;58.92;99913.47;4892302;28;97105;-79
2021/11/26 02:53:19;;;;;;;1999.90;999.90;;;;;;;-0.99;58.76;99917.06;4897967;28;97928;-78
2021/11/26 02:55:48;;;;;;;1999.90;999.90;;;;;;;-1.00;58.61;99910.06;4879992;28;97736;-77
2021/11/26 02:58:17;;;;;;;1999.90;999.90;;;;;;;-1.00;58.53;99899.59;4897595;28;99291;-75
2021/11/26 03:00:49;;;;;;;1999.90;999.90;;;;;;;-1.01;58.92;99908.25;4900299;28;97319;-79
2021/11/26 03:03:17;;;;;;;1999.90;999.90;;;;;;;-1.01;58.87;99905.63;4899041;28;96930;-77
2021/11/26 03:05:45;;;;;;;1999.90;999.90;;;;;;;-1.02;59.08;99906.47;4896715;28;98680;-77
2021/11/26 03:08:14;;;;;;;1999.90;999.90;;;;;;;-0.98;58.69;99897.97;4896691;28;98062;-76
2021/11/26 03:10:42;;;;;;;1999.90;999.90;;;;;;;-0.99;58.78;99891.84;4881351;28;97437;-77
2021/11/26 03:13:12;;;;;;;1999.90;999.90;;;;;;;-0.98;58.66;99893.66;4898804;28;97425;-78
2021/11/26 03:15:42;;;;;;;1999.90;999.90;;;;;;;-0.97;58.89;99889.31;4885469;28;98186;-79
2021/11/26 03:18:13;;;;;;;1999.90;999.90;;;;;;;-0.95;58.44;99887.69;4895648;28;100276;-79
2021/11/26 03:20:41;;;;;;;1999.90;999.90;;;;;;;-0.93;58.74;99883.44;4897658;28;97908;-78
2021/11/26 03:23:10;;;;;;;1999.90;999.90;;;;;;;-0.88;58.39;99892.41;4879691;28;97292;-78
2021/11/26 03:25:40;;;;;;;1999.90;999.90;;;;;;;-0.87;58.30;99887.25;4880810;28;98270;-77
2021/11/26 03:28:09;;;;;;;1999.90;999.90;;;;;;;-0.88;58.21;99876.72;4897635;28;98506;-77
2021/11/26 03:30:39;;;;;;;1999.90;999.90;;;;;;;-0.88;58.66;99874.13;4881039;28;98438;-77
2021/11/26 03:33:07;;;;;;;1999.90;999.90;;;;;;;-0.94;58.68;99874.69;4884488;28;98313;-78
2021/11/26 03:35:36;;;;;;;1999.90;999.90;;;;;;;-0.94;58.33;99868.59;4878228;28;97609;-77
2021/11/26 03:38:04;;;;;;;1999.90;999.90;;;;;;;-0.96;58.62;99865.03;4863582;28;97541;-77
2021/11/26 03:40:32;;;;;;;1999.90;999.90;;;;;;;-0.97;58.67;99868.44;4880192;28;96907;-78
2021/11/26 03:43:00;;;;;;;1999.90;999.90;;;;;;;-0.97;58.47;99860.59;4877957;28;97359;-78
2021/11/26 03:45:30;;;;;;;1999.90;999.90;;;;;;;-0.96;58.26;99870.25;4877329;28;98414;-77
2021/11/26 03:48:00;;;;;;;1999.90;999.90;;;;;;;-0.98;58.75;99861.44;4896465;28;99100;-77
2021/11/26 03:50:28;;;;;;;1999.90;999.90;;;;;;;-0.99;58.35;99864.84;4894998;28;97562;-78
2021/11/26 03:52:56;;;;;;;1999.90;999.90;;;;;;;-1.00;58.55;99863.06;4879891;28;97855;-78
2021/11/26 03:55:28;;;;;;;1999.90;999.90;;;;;;;-1.07;58.38;99855.72;4879756;28;100283;-79
2021/11/26 03:57:57;;;;;;;1999.90;999.90;;;;;;;-1.10;58.53;99845.09;4896140;28;98820;-76
2021/11/26 04:00:26;;;;;;;1999.90;999.90;;;;;;;-1.09;58.86;99852.13;4880566;28;97545;-77
2021/11/26 04:02:55;;;;;;;1999.90;999.90;;;;;;;-1.08;58.60;99853.91;4881843;28;98181;-77
2021/11/26 04:05:24;;;;;;;1999.90;999.90;;;;;;;-1.08;58.30;99853.91;4881896;28;99235;-77
2021/11/26 04:07:57;;;;;;;1999.90;999.90;;;;;;;-1.08;58.49;99851.31;4897503;28;99173;-76
2021/11/26 04:10:26;;;;;;;1999.90;999.90;;;;;;;-1.07;58.63;99845.28;4888468;28;97537;-76
2021/11/26 04:12:55;;;;;;;1999.90;999.90;;;;;;;-1.07;58.75;99842.69;4881007;28;97833;-76
2021/11/26 04:15:23;;;;;;;1999.90;999.90;;;;;;;-1.09;58.73;99841.69;4879544;28;99908;-77
2021/11/26 04:17:58;;;;;;;1999.90;999.90;;;;;;;-1.11;58.57;99835.50;4894753;28;99535;-79
2021/11/26 04:20:28;;;;;;;1999.90;999.90;;;;;;;-1.10;58.89;99837.28;4880849;28;97468;-76
2021/11/26 04:22:56;;;;;;;1999.90;999.90;;;;;;;-1.12;58.86;99834.59;4897882;28;98332;-78
2021/11/26 04:25:24;;;;;;;1999.90;999.90;;;;;;;-1.12;59.08;99834.59;4899826;28;98825;-77
2021/11/26 04:27:53;;;;;;;1999.90;999.90;;;;;;;-1.18;58.87;99825.56;4880670;28;99623;-78
2021/11/26 04:30:23;;;;;;;1999.90;999.90;;;;;;;-1.26;59.23;99824.25;4899148;28;98104;-78
2021/11/26 04:32:51;;;;;;;1999.90;999.90;;;;;;;-1.28;58.80;99820.66;4882231;28;98078;-73
2021/11/26 04:35:20;;;;;;;1999.90;999.90;;;;;;;-1.31;58.72;99817.91;4912232;28;97709;-77
2021/11/26 04:37:50;;;;;;;1999.90;999.90;;;;;;;-1.33;58.70;99814.31;4909776;28;97668;-77
2021/11/26 04:40:18;;;;;;;1999.90;999.90;;;;;;;-1.32;59.23;99803.94;4914287;28;98038;-76
2021/11/26 04:42:46;;;;;;;1999.90;999.90;;;;;;;-0.94;57.79;99800.72;4892173;28;97983;-77
2021/11/26 04:45:16;;;;;;;1999.90;999.90;;;;;;;-1.10;58.56;99804.25;4907535;28;98114;-77
2021/11/26 04:47:44;;;;;;;1999.90;999.90;;;;;;;-1.16;58.09;99798.69;4893399;28;98322;-76
2021/11/26 04:50:14;;;;;;;1999.90;999.90;;;;;;;-1.19;58.25;99787.22;4868923;28;97438;-76
2021/11/26 04:52:42;;;;;;;1999.90;999.90;;;;;;;-1.20;58.63;99790.66;4880037;28;96916;-76
2021/11/26 04:55:13;;;;;;;1999.90;999.90;;;;;;;-1.16;58.69;99790.00;4901005;28;99586;-77
2021/11/26 04:57:41;;;;;;;1999.90;999.90;;;;;;;-0.79;57.37;99787.53;4880667;28;97913;-77
2021/11/26 05:00:10;;;;;;;1999.90;999.90;;;;;;;-0.93;58.12;99792.06;4891949;28;97870;-78
2021/11/26 05:02:38;;;;;;;1999.90;999.90;;;;;;;-0.94;58.18;99785.06;4903311;28;97669;-77
2021/11/26 05:05:07;;;;;;;1999.90;999.90;;;;;;;-0.91;57.73;99782.59;4904432;28;99364;-77
2021/11/26 05:07:36;;;;;;;1999.90;999.90;;;;;;;-0.91;57.96;99769.53;4889652;28;100751;-79
2021/11/26 05:10:05;;;;;;;1999.90;999.90;;;;;;;-0.88;57.73;99785.34;4870841;28;97799;-78
2021/11/26 05:12:37;;;;;;;1999.90;999.90;;;;;;;-0.88;57.88;99775.81;4900906;28;97490;-76
2021/11/26 05:15:07;;;;;;;1999.90;999.90;;;;;;;-0.87;58.06;99771.50;4884867;28;100730;-76
2021/11/26 05:17:35;;;;;;;1999.90;999.90;;;;;;;-0.86;57.93;99770.66;4902174;28;97710;-76
2021/11/26 05:20:04;;;;;;;1999.90;999.90;;;;;;;-0.84;57.54;99771.63;4902436;28;97119;-77
2021/11/26 05:22:32;;;;;;;1999.90;999.90;;;;;;;-0.84;57.58;99766.41;4896229;28;97174;-75
2021/11/26 05:25:01;;;;;;;1999.90;999.90;;;;;;;-0.85;57.48;99760.28;4901398;28;98218;-77
2021/11/26 05:27:29;;;;;;;1999.90;999.90;;;;;;;-0.85;57.63;99751.56;4883312;28;99678;-74
2021/11/26 05:29:58;;;;;;;1999.90;999.90;;;;;;;-0.86;57.74;99758.50;4899035;28;97551;-73
2021/11/26 05:32:26;;;;;;;1999.90;999.90;;;;;;;-0.88;57.74;99749.69;4899761;28;99233;-75
2021/11/26 05:34:54;;;;;;;1999.90;999.90;;;;;;;-0.87;57.91;99748.00;4898354;28;97645;-74
2021/11/26 05:37:25;;;;;;;1999.90;999.90;;;;;;;-0.88;57.99;99744.47;4881508;28;98218;-77
2021/11/26 05:39:53;;;;;;;1999.90;999.90;;;;;;;-0.86;57.64;99744.53;4898611;28;98572;-74
2021/11/26 05:42:22;;;;;;;1999.90;999.90;;;;;;;-0.87;57.74;99746.25;4898245;28;97979;-75
2021/11/26 05:44:50;;;;;;;1999.90;999.90;;;;;;;-0.84;57.48;99745.53;4898585;28;98676;-74
2021/11/26 05:47:19;;;;;;;1999.90;999.90;;;;;;;-0.85;57.47;99736.78;4868520;28;99145;-76
2021/11/26 05:49:47;;;;;;;1999.90;999.90;;;;;;;-0.84;57.47;99740.31;4877556;28;99295;-79
2021/11/26 05:52:15;;;;;;;1999.90;999.90;;;;;;;-0.83;57.73;99740.38;4882031;28;97695;-76
2021/11/26 05:54:43;;;;;;;1999.90;999.90;;;;;;;-0.49;56.89;99736.78;4897192;28;99284;-76
2021/11/26 05:57:12;;;;;;;1999.90;999.90;;;;;;;-0.28;55.72;99732.59;4896129;28;98252;-76
2021/11/26 05:59:40;;;;;;;1999.90;999.90;;;;;;;-0.10;55.29;99726.50;4895695;28;97448;-76
2021/11/26 06:02:09;;;;;;;1999.90;999.90;;;;;;;0.07;54.53;99722.03;4895568;28;99770;-75
2021/11/26 06:04:39;;;;;;;1999.90;999.90;;;;;;;0.16;54.30;99712.91;4896784;28;98672;-77
2021/11/26 06:07:07;;;;;;;1999.90;999.90;;;;;;;-0.20;55.27;99720.78;4882645;28;99602;-76
2021/11/26 06:09:39;;;;;;;1999.90;999.90;;;;;;;-0.33;55.92;99708.84;4881910;28;96962;-76
2021/11/26 06:12:09;;;;;;;1999.90;999.90;;;;;;;-0.38;56.21;99710.38;4897852;28;97778;-76
2021/11/26 06:14:37;;;;;;;1999.90;999.90;;;;;;;-0.05;54.87;99717.16;4883685;28;99152;-76
2021/11/26 06:17:05;;;;;;;1999.90;999.90;;;;;;;-0.26;55.58;99702.19;4881126;28;99539;-77
2021/11/26 06:19:33;;;;;;;1999.90;999.90;;;;;;;-0.32;55.96;99707.16;4899915;28;97059;-77
2021/11/26 06:22:05;;;;;;;1999.90;999.90;;;;;;;-0.37;55.79;99706.00;4898070;28;98082;-76
2021/11/26 06:24:33;;;;;;;1999.90;999.90;;;;;;;-0.41;56.11;99706.72;4880530;28;99717;-78
2021/11/26 06:27:10;;;;;;;1999.90;999.90;;;;;;;-0.45;56.19;99694.31;4879926;28;98116;-78
2021/11/26 06:29:43;;;;;;;1999.90;999.90;;;;;;;-0.49;56.50;99695.00;4895461;28;96862;-78
2021/11/26 06:32:11;;;;;;;1999.90;999.90;;;;;;;-0.52;56.52;99694.84;4897500;28;96913;-77
2021/11/26 06:34:39;;;;;;;1999.90;999.90;;;;;;;-0.57;56.60;99698.94;4895780;28;99753;-77
2021/11/26 06:37:09;;;;;;;1999.90;999.90;;;;;;;-0.62;56.72;99693.50;4880049;28;98937;-77
2021/11/26 06:39:38;;;;;;;1999.90;999.90;;;;;;;-0.64;56.79;99692.53;4878985;28;99063;-77
2021/11/26 06:42:06;;;;;;;1999.90;999.90;;;;;;;-0.64;56.76;99692.53;4891897;28;97616;-78
2021/11/26 06:44:36;;;;;;;1999.90;999.90;;;;;;;-0.65;56.68;99698.59;4877778;28;98230;-76
2021/11/26 06:47:04;;;;;;;1999.90;999.90;;;;;;;-0.65;56.70;99689.88;4875658;28;100396;-76
2021/11/26 06:49:33;;;;;;;1999.90;999.90;;;;;;;-0.66;56.77;99688.97;4895092;28;97124;-77
2021/11/26 06:52:01;;;;;;;1999.90;999.90;;;;;;;-0.34;55.27;99680.94;4879615;28;98214;-79
2021/11/26 06:54:31;;;;;;;1999.90;999.90;;;;;;;-0.52;56.08;99682.66;4880702;28;99400;-77
2021/11/26 06:56:59;;;;;;;1999.90;999.90;;;;;;;-0.55;56.00;99682.53;4898111;28;98579;-77
2021/11/26 06:59:27;;;;;;;1999.90;999.90;;;;;;;-0.57;56.40;99684.16;4898374;28;99456;-75
2021/11/26 07:01:56;;;;;;;1999.90;999.90;;;;;;;-0.61;56.44;99674.41;4898103;28;99676;-75
2021/11/26 07:04:24;;;;;;;1999.90;999.90;;;;;;;-0.61;56.50;99673.53;4898657;28;97980;-77
2021/11/26 07:06:52;;;;;;;1999.90;999.90;;;;;;;-0.28;55.43;99668.13;4896701;28;97655;-77
2021/11/26 07:09:20;;;;;;;1999.90;999.90;;;;;;;-0.51;55.71;99665.28;4899273;28;98263;-77
2021/11/26 07:11:50;;;;;;;1999.90;999.90;;;;;;;-0.63;56.24;99667.31;4880998;28;97237;-77
2021/11/26 07:14:38;;;;;;;1999.90;999.90;;;;;;;-0.75;55.90;99665.00;4899503;28;98207;-77
2021/11/26 07:17:06;;;;;;;1999.90;999.90;;;;;;;-0.81;56.17;99663.00;4897052;28;99642;-76
2021/11/26 07:19:36;;;;;;;1999.90;999.90;;;;;;;-0.85;56.87;99660.19;4898080;28;97410;-77
2021/11/26 07:22:05;;;;;;;1999.90;999.90;;;;;;;-0.85;56.44;99649.75;4897930;28;98468;-77
2021/11/26 07:24:33;;;;;;;1999.90;999.90;;;;;;;-0.89;56.29;99653.03;4881803;28;98413;-74
2021/11/26 07:27:03;;;;;;;1999.90;999.90;;;;;;;-0.91;56.56;99649.44;4897190;28;97611;-76
2021/11/26 07:29:31;;;;;;;1999.90;999.90;;;;;;;-0.89;57.04;99648.69;4880714;28;96893;-73
2021/11/26 07:31:59;;;;;;;1999.90;999.90;;;;;;;-0.86;56.70;99643.63;4882198;28;97789;-76
2021/11/26 07:34:28;;;;;;;1999.90;999.90;;;;;;;-0.82;56.46;99649.88;4895521;28;97740;-75
2021/11/26 07:36:57;;;;;;;1999.90;999.90;;;;;;;-0.80;56.52;99645.63;4879874;28;99213;-76
2021/11/26 07:39:32;;;;;;;1999.90;999.90;;;;;;;-0.76;56.75;99642.34;4884755;28;97876;-77
2021/11/26 07:42:03;;;;;;;1999.90;999.90;;;;;;;-0.74;56.61;99638.09;4899193;28;96986;-76
2021/11/26 07:44:31;;;;;;;1999.90;999.90;;;;;;;-0.71;56.30;99630.41;4898724;28;98540;-74
2021/11/26 07:46:59;;;;;;;1999.90;999.90;;;;;;;-0.68;56.83;99625.31;4897712;28;99159;-77
2021/11/26 07:49:28;;;;;;;1999.90;999.90;;;;;;;-0.66;56.65;99626.28;4896984;28;97031;-78
2021/11/26 07:51:58;;;;;;;1999.90;999.90;;;;;;;-0.62;56.16;99622.09;4881807;28;97558;-77
2021/11/26 07:54:26;;;;;;;1999.90;999.90;;;;;;;-0.59;56.14;99620.50;4897683;28;98332;-77
2021/11/26 07:56:55;;;;;;;1999.90;999.90;;;;;;;-0.57;56.45;99626.69;4898687;28;97643;-77
2021/11/26 07:59:26;;;;;;;1999.90;999.90;;;;;;;-0.58;56.27;99611.88;4900340;28;97871;-78
2021/11/26 08:01:54;;;;;;;1999.90;999.90;;;;;;;-0.23;55.07;99614.34;4898830;28;99300;-77
2021/11/26 08:04:23;;;;;;;1999.90;999.90;;;;;;;-0.39;55.56;99601.41;4881885;28;100931;-78
2021/11/26 08:06:51;;;;;;;1999.90;999.90;;;;;;;-0.40;55.91;99599.66;4898584;28;97818;-77
2021/11/26 08:09:20;;;;;;;1999.90;999.90;;;;;;;-0.39;55.78;99601.41;4898245;28;97566;-78
2021/11/26 08:11:50;;;;;;;1999.90;999.90;;;;;;;-0.40;56.01;99594.41;4899086;28;97790;-77
2021/11/26 08:14:19;;;;;;;1999.90;999.90;;;;;;;-0.38;55.62;99597.09;4885402;28;100836;-78
2021/11/26 08:16:50;;;;;;;1999.90;999.90;;;;;;;-0.41;55.63;99592.63;4881212;28;99738;-78
2021/11/26 08:19:18;;;;;;;1999.90;999.90;;;;;;;-0.45;55.71;99582.88;4901347;28;98053;-77
2021/11/26 08:21:47;;;;;;;1999.90;999.90;;;;;;;-0.48;55.50;99584.44;4878782;28;97908;-77
2021/11/26 08:24:16;;;;;;;1999.90;999.90;;;;;;;-0.48;56.12;99580.09;4886289;28;99283;-76
2021/11/26 08:26:46;;;;;;;1999.90;999.90;;;;;;;-0.48;56.04;99587.06;4889938;28;99957;-77
2021/11/26 08:29:14;;;;;;;1999.90;999.90;;;;;;;-0.46;55.90;99569.72;4903663;28;97629;-76
2021/11/26 08:31:42;;;;;;;1999.90;999.90;;;;;;;-0.44;56.05;99575.91;4889369;28;98710;-76
2021/11/26 08:34:12;;;;;;;1999.90;999.90;;;;;;;-0.45;55.98;99569.81;4888681;28;99387;-76
2021/11/26 08:36:40;;;;;;;1999.90;999.90;;;;;;;-0.44;55.78;99571.59;4902788;28;98847;-75
2021/11/26 08:39:09;;;;;;;1999.90;999.90;;;;;;;-0.13;54.94;99559.06;4883235;28;97015;-75
2021/11/26 08:41:37;;;;;;;1999.90;999.90;;;;;;;-0.28;55.33;99563.59;4904540;28;96970;-77
2021/11/26 08:44:06;;;;;;;1999.90;999.90;;;;;;;-0.28;55.95;99560.97;4908942;28;99829;-76
2021/11/26 08:46:34;;;;;;;1999.90;999.90;;;;;;;-0.35;55.19;99551.09;4913632;28;97648;-78
2021/11/26 08:49:03;;;;;;;1999.90;999.90;;;;;;;-0.35;55.63;99551.09;4926877;28;96758;-74
2021/11/26 08:51:35;;;;;;;1999.90;999.90;;;;;;;-0.36;55.67;99544.09;4893100;28;96686;-74
2021/11/26 08:54:04;;;;;;;1999.90;999.90;;;;;;;-0.03;54.70;99542.94;4899769;28;98164;-76
2021/11/26 08:56:32;;;;;;;1999.90;999.90;;;;;;;-0.19;55.14;99537.88;4916835;28;99724;-78
2021/11/26 08:59:02;;;;;;;1999.90;999.90;;;;;;;-0.22;54.96;99531.63;4901171;28;99227;-76
2021/11/26 09:01:31;;;;;;;1999.90;999.90;;;;;;;-0.25;55.31;99532.41;4911455;28;96896;-77
2021/11/26 09:04:00;;;;;;;1999.90;999.90;;;;;;;0.09;54.05;99534.72;4904904;28;99622;-77
2021/11/26 09:06:28;;;;;;;1999.90;999.90;;;;;;;0.26;53.59;99539.00;4902329;28;97736;-77
2021/11/26 09:08:58;;;;;;;1999.90;999.90;;;;;;;0.01;54.44;99537.00;4901090;28;97143;-77
2021/11/26 09:11:27;;;;;;;1999.90;999.90;;;;;;;-0.05;54.80;99536.75;4899919;28;98531;-77
2021/11/26 09:13:55;;;;;;;1999.90;999.90;;;;;;;-0.07;54.66;99535.81;4883852;28;100003;-76
2021/11/26 09:16:24;;;;;;;1999.90;999.90;;;;;;;-0.09;55.11;99531.31;4896928;28;99411;-78
2021/11/26 09:18:52;;;;;;;1999.90;999.90;;;;;;;-0.11;54.99;99526.03;4881242;28;97048;-77
2021/11/26 09:21:21;;;;;;;1999.90;999.90;;;;;;;0.21;54.52;99522.19;4880613;28;98853;-76
2021/11/26 09:23:49;;;;;;;1999.90;999.90;;;;;;;0.38;53.46;99505.47;4899283;28;98494;-76
2021/11/26 09:26:19;;;;;;;1999.90;999.90;;;;;;;0.54;52.93;99514.88;4879191;28;99438;-76
2021/11/26 09:28:47;;;;;;;1999.90;999.90;;;;;;;0.29;54.09;99501.59;4898745;28;97119;-77
2021/11/26 09:31:16;;;;;;;1999.90;999.90;;;;;;;0.20;54.15;99502.97;4901593;28;96899;-75
2021/11/26 09:33:44;;;;;;;1999.90;999.90;;;;;;;0.17;54.39;99497.59;4899242;28;99237;-76
2021/11/26 09:36:13;;;;;;;1999.90;999.90;;;;;;;0.14;54.35;99500.09;4881766;28;100047;-78
2021/11/26 09:38:42;;;;;;;1999.90;999.90;;;;;;;0.11;54.68;99499.97;4863389;28;98701;-75
2021/11/26 09:41:13;;;;;;;1999.90;999.90;;;;;;;0.08;54.88;99497.22;4879633;28;97269;-75
2021/11/26 09:44:01;;;;;;;1999.90;999.90;;;;;;;0.07;54.75;99490.22;4913425;28;98756;-77
2021/11/26 09:46:33;;;;;;;1999.90;999.90;;;;;;;0.07;54.88;99498.06;4879621;28;97623;-76
2021/11/26 09:49:01;;;;;;;1999.90;999.90;;;;;;;0.06;55.04;99488.41;4896741;28;99065;-76
2021/11/26 09:51:30;;;;;;;1999.90;999.90;;;;;;;0.06;55.30;99485.78;4878801;28;98188;-76
2021/11/26 09:53:58;;;;;;;1999.90;999.90;;;;;;;0.04;55.04;99482.25;4895718;28;98910;-76
2021/11/26 09:56:30;;;;;;;1999.90;999.90;;;;;;;0.02;55.14;99470.84;4895910;28;101267;-77
2021/11/26 09:59:01;;;;;;;1999.90;999.90;;;;;;;0.03;55.02;99466.47;4895562;28;97599;-77
2021/11/26 10:01:29;;;;;;;1999.90;999.90;;;;;;;0.04;55.24;99466.56;4894837;28;97823;-78
2021/11/26 10:03:58;;;;;;;1999.90;999.90;;;;;;;0.07;55.31;99469.28;4894940;28;98406;-78
2021/11/26 10:06:30;;;;;;;1999.90;999.90;;;;;;;0.12;55.47;99459.91;4895295;28;97798;-77
2021/11/26 10:09:00;;;;;;;1999.90;999.90;;;;;;;0.13;55.15;99442.50;4893952;28;98714;-77
2021/11/26 10:11:30;;;;;;;1999.90;999.90;;;;;;;0.16;55.48;99438.28;4892351;28;98012;-76
2021/11/26 10:14:00;;;;;;;1999.90;999.90;;;;;;;0.19;55.42;99441.00;4880248;28;98055;-79
2021/11/26 10:16:49;;;;;;;1999.90;999.90;;;;;;;0.24;55.44;99428.19;4897424;28;98528;-76
2021/11/26 10:19:45;;;;;;;1999.90;999.90;;;;;;;0.27;55.09;99422.16;4882773;28;97340;-77
2021/11/26 10:22:15;;;;;;;1999.90;999.90;;;;;;;0.30;55.43;99419.69;4898190;28;97345;-77
2021/11/26 10:24:55;;;;;;;1999.90;999.90;;;;;;;0.32;55.24;99402.31;4881496;28;99706;-77
2021/11/26 10:27:37;;;;;;;1999.90;999.90;;;;;;;0.37;54.77;99411.25;4880624;28;100452;-75
2021/11/26 10:30:26;;;;;;;1999.90;999.90;;;;;;;0.38;54.89;99399.94;4898038;28;97301;-76
2021/11/26 10:32:58;;;;;;;1999.90;999.90;;;;;;;0.42;54.79;99388.75;4897099;28;97485;-77
2021/11/26 10:35:29;;;;;;;1999.90;999.90;;;;;;;0.45;55.01;99386.28;4895526;28;98849;-76
2021/11/26 10:38:04;;;;;;;1999.90;999.90;;;;;;;0.47;55.20;99385.50;4896902;28;101134;-76
2021/11/26 10:40:34;;;;;;;1999.90;999.90;;;;;;;0.51;55.01;99376.03;4881196;28;97633;-78
2021/11/26 10:43:05;;;;;;;1999.90;999.90;;;;;;;0.56;54.92;99371.88;4882916;28;97393;-77
2021/11/26 10:57:21;;;;;;;1999.90;999.90;;;;;;;0.67;54.82;99354.84;4894173;28;99388;-78
2021/11/26 10:59:50;;;;;;;1999.90;999.90;;;;;;;0.71;55.25;99351.50;4897811;28;99023;-77
2021/11/26 11:02:28;;;;;;;1999.90;999.90;;;;;;;0.75;55.19;99346.47;4880305;28;98237;-78
2021/11/26 11:04:57;;;;;;;1999.90;999.90;;;;;;;0.80;54.78;99347.50;4878498;28;98088;-77
2021/11/26 11:07:25;;;;;;;1999.90;999.90;;;;;;;0.86;55.28;99349.47;4877991;28;103252;-76
2021/11/26 11:09:55;;;;;;;1999.90;999.90;;;;;;;0.87;54.83;99343.38;4878596;28;99360;-77
2021/11/26 11:12:30;;;;;;;1999.90;999.90;;;;;;;0.90;54.59;99330.41;4879186;28;97873;-78
2021/11/26 11:15:01;;;;;;;1999.90;999.90;;;;;;;0.95;54.69;99331.47;4895308;28;97616;-78
2021/11/26 11:17:33;;;;;;;1999.90;999.90;;;;;;;0.97;55.01;99329.81;4895418;28;98131;-76